createdAt,value
2023-04-07T00:01:42.518Z,10.63
2023-04-07T00:04:11.143Z,10.77
2023-04-07T00:06:40.500Z,12.20
2023-04-07T00:09:08.408Z,12.97
2023-04-07T00:11:36.337Z,16.60
2023-04-07T00:14:05.794Z,18.63
2023-04-07T00:16:34.140Z,14.40
2023-04-07T00:19:02.078Z,13.57
2023-04-07T00:21:29.937Z,14.00
2023-04-07T00:23:57.890Z,13.63
2023-04-07T00:26:29.044Z,14.77
2023-04-07T00:28:56.913Z,13.87
2023-04-07T00:31:26.363Z,13.47
2023-04-07T00:33:55.794Z,13.87
2023-04-07T00:36:24.237Z,12.67
2023-04-07T00:38:52.123Z,12.33
2023-04-07T00:41:19.993Z,12.70
2023-04-07T00:43:48.234Z,12.80
2023-04-07T00:46:16.418Z,12.40
2023-04-07T00:48:46.399Z,12.73
2023-04-07T00:51:15.618Z,13.57
2023-04-07T00:53:44.102Z,12.97
2023-04-07T00:56:13.165Z,14.03
2023-04-07T00:58:41.414Z,13.83
2023-04-07T01:01:19.952Z,15.90
2023-04-07T01:03:59.451Z,15.63
2023-04-07T01:06:36.804Z,15.73
2023-04-07T01:09:15.080Z,13.37
2023-04-07T01:11:51.588Z,13.97
2023-04-07T01:14:22.771Z,13.13
2023-04-07T01:17:04.680Z,12.83
2023-04-07T01:19:38.888Z,13.87
2023-04-07T01:22:15.053Z,15.03
2023-04-07T01:25:24.346Z,13.57
2023-04-07T01:28:15.069Z,14.80
2023-04-07T01:30:47.054Z,15.17
2023-04-07T01:33:17.229Z,13.93
2023-04-07T01:35:47.314Z,15.23
2023-04-07T01:38:16.919Z,14.37
2023-04-07T01:40:46.687Z,14.97
2023-04-07T01:43:15.848Z,13.93
2023-04-07T01:45:46.982Z,14.80
2023-04-07T01:48:16.785Z,13.97
2023-04-07T01:50:47.294Z,14.30
2023-04-07T01:53:16.898Z,14.47
2023-04-07T01:55:46.302Z,13.07
2023-04-07T01:58:14.183Z,12.55
2023-04-07T02:00:45.418Z,13.27
2023-04-07T02:03:24.644Z,11.32
2023-04-07T02:05:58.561Z,11.17
2023-04-07T02:08:34.410Z,11.70
2023-04-07T02:11:05.522Z,11.85
2023-04-07T02:13:38.698Z,11.13
2023-04-07T02:16:13.349Z,10.53
2023-04-07T02:18:43.225Z,10.33
2023-04-07T02:21:12.972Z,9.63
2023-04-07T02:23:41.193Z,11.73
2023-04-07T02:26:09.092Z,11.98
2023-04-07T02:28:39.984Z,11.95
2023-04-07T02:31:07.917Z,12.00
2023-04-07T02:33:37.133Z,11.15
2023-04-07T02:36:05.284Z,11.90
2023-04-07T02:38:33.272Z,10.43
2023-04-07T02:41:01.176Z,9.43
2023-04-07T02:43:31.113Z,9.95
2023-04-07T02:45:59.095Z,10.03
2023-04-07T02:48:27.154Z,9.00
2023-04-07T02:50:56.404Z,10.02
2023-04-07T02:53:24.430Z,9.38
2023-04-07T02:55:52.310Z,9.70
2023-04-07T02:58:20.246Z,9.63
2023-04-07T03:00:50.724Z,9.60
2023-04-07T03:03:24.341Z,10.05
2023-04-07T03:06:09.597Z,9.48
2023-04-07T03:08:45.415Z,9.70
2023-04-07T03:11:13.435Z,9.27
2023-04-07T03:13:41.318Z,8.73
2023-04-07T03:16:09.692Z,8.43
2023-04-07T03:18:46.756Z,9.15
2023-04-07T03:21:16.180Z,9.35
2023-04-07T03:23:44.505Z,8.75
2023-04-07T03:26:12.778Z,9.48
2023-04-07T03:28:40.823Z,10.02
2023-04-07T03:31:08.763Z,9.82
2023-04-07T03:33:36.666Z,9.75
2023-04-07T03:36:05.224Z,10.35
2023-04-07T03:38:35.290Z,11.73
2023-04-07T03:41:06.252Z,9.85
2023-04-07T03:43:34.196Z,10.45
2023-04-07T03:46:03.218Z,9.35
2023-04-07T03:48:32.269Z,10.02
2023-04-07T03:51:06.357Z,9.93
2023-04-07T03:53:36.594Z,10.90
2023-04-07T03:56:15.664Z,10.65
2023-04-07T03:58:46.634Z,10.45
2023-04-07T04:01:20.058Z,9.88
2023-04-07T04:03:51.618Z,10.20
2023-04-07T04:06:27.065Z,9.32
2023-04-07T04:09:01.762Z,10.23
2023-04-07T04:11:32.891Z,8.98
2023-04-07T04:14:04.540Z,9.25
2023-04-07T04:16:35.482Z,10.43
2023-04-07T04:19:07.988Z,9.88
2023-04-07T04:21:36.635Z,9.98
2023-04-07T04:24:06.537Z,10.43
2023-04-07T04:26:34.479Z,9.95
2023-04-07T04:29:09.747Z,10.10
2023-04-07T04:31:37.708Z,9.02
2023-04-07T04:34:06.803Z,9.77
2023-04-07T04:36:36.640Z,12.90
2023-04-07T04:39:08.184Z,12.23
2023-04-07T04:41:37.168Z,11.48
2023-04-07T04:44:06.375Z,10.35
2023-04-07T04:46:34.493Z,11.25
2023-04-07T04:49:02.840Z,11.77
2023-04-07T04:51:31.534Z,16.95
2023-04-07T04:54:06.326Z,18.27
2023-04-07T04:56:36.490Z,22.73
2023-04-07T04:59:06.319Z,18.60
2023-04-07T05:01:42.533Z,18.02
2023-04-07T05:04:14.711Z,17.27
2023-04-07T05:06:48.805Z,16.15
2023-04-07T05:09:20.055Z,15.18
2023-04-07T05:11:51.263Z,14.95
2023-04-07T05:14:19.391Z,14.18
2023-04-07T05:16:54.356Z,14.17
2023-04-07T05:19:27.327Z,14.30
2023-04-07T05:21:58.816Z,14.07
2023-04-07T05:24:29.645Z,14.87
2023-04-07T05:27:02.926Z,16.00
2023-04-07T05:29:32.538Z,15.03
2023-04-07T05:32:01.506Z,15.13
2023-04-07T05:34:31.676Z,15.50
2023-04-07T05:36:59.765Z,14.73
2023-04-07T05:39:27.707Z,15.00
2023-04-07T05:41:58.112Z,15.33
2023-04-07T05:44:29.622Z,14.83
2023-04-07T05:46:58.059Z,15.00
2023-04-07T05:49:27.881Z,14.70
2023-04-07T05:52:05.901Z,15.27
2023-04-07T05:54:37.584Z,16.13
2023-04-07T05:57:07.236Z,15.03
2023-04-07T05:59:37.694Z,14.97
2023-04-07T06:02:06.486Z,14.83
2023-04-07T06:04:35.426Z,15.37
2023-04-07T06:07:05.474Z,15.13
2023-04-07T06:09:33.395Z,14.20
2023-04-07T06:12:01.707Z,15.87
2023-04-07T06:14:30.717Z,15.17
2023-04-07T06:17:00.015Z,15.37
2023-04-07T06:19:28.405Z,17.23
2023-04-07T06:21:56.398Z,17.23
2023-04-07T06:24:27.316Z,15.23
2023-04-07T06:26:56.897Z,15.23
2023-04-07T06:29:25.035Z,13.93
2023-04-07T06:31:53.635Z,14.47
2023-04-07T06:34:22.894Z,14.60
2023-04-07T06:36:50.935Z,14.77
2023-04-07T06:39:19.217Z,14.07
2023-04-07T06:41:47.205Z,14.47
2023-04-07T06:44:15.389Z,14.13
2023-04-07T06:46:44.375Z,15.00
2023-04-07T06:49:12.362Z,13.43
2023-04-07T06:51:41.857Z,13.00
2023-04-07T06:54:12.881Z,12.73
2023-04-07T06:56:41.055Z,13.93
2023-04-07T06:59:09.278Z,13.60
2023-04-07T07:01:37.728Z,14.77
2023-04-07T07:04:06.980Z,14.30
2023-04-07T07:06:35.202Z,14.90
2023-04-07T07:09:04.691Z,14.87
2023-04-07T07:11:32.587Z,15.70
2023-04-07T07:14:00.502Z,15.97
2023-04-07T07:16:28.942Z,15.40
2023-04-07T07:18:57.165Z,14.17
2023-04-07T07:21:25.048Z,13.60
2023-04-07T07:23:53.037Z,14.20
2023-04-07T07:26:22.731Z,14.13
2023-04-07T07:28:51.023Z,12.53
2023-04-07T07:31:19.010Z,12.73
2023-04-07T07:33:49.117Z,11.43
2023-04-07T07:36:17.340Z,13.23
2023-04-07T07:38:45.295Z,14.20
2023-04-07T07:41:13.204Z,13.00
2023-04-07T07:43:42.983Z,14.37
2023-04-07T07:46:11.001Z,14.40
2023-04-07T07:48:39.011Z,14.57
2023-04-07T07:51:07.046Z,16.10
2023-04-07T07:53:34.986Z,13.97
2023-04-07T07:56:02.874Z,13.63
2023-04-07T07:58:30.766Z,13.57
2023-04-07T08:00:59.953Z,13.03
2023-04-07T08:03:27.988Z,13.37
2023-04-07T08:05:56.039Z,13.80
2023-04-07T08:08:23.932Z,13.87
2023-04-07T08:10:52.106Z,12.70
2023-04-07T08:13:20.023Z,13.47
2023-04-07T08:15:47.921Z,12.77
2023-04-07T08:18:17.407Z,12.80
2023-04-07T08:20:45.343Z,12.87
2023-04-07T08:23:13.568Z,13.97
2023-04-07T08:25:41.448Z,11.90
2023-04-07T08:28:09.334Z,13.33
2023-04-07T08:30:38.025Z,13.07
2023-04-07T08:33:07.231Z,12.63
2023-04-07T08:35:36.792Z,12.67
2023-04-07T08:38:05.723Z,12.00
2023-04-07T08:40:35.216Z,11.80
2023-04-07T08:43:09.158Z,12.50
2023-04-07T08:45:42.071Z,11.60
2023-04-07T08:48:18.715Z,11.70
2023-04-07T08:50:53.499Z,12.20
2023-04-07T08:53:30.667Z,11.60
2023-04-07T08:55:59.633Z,11.03
2023-04-07T08:58:28.661Z,10.77
2023-04-07T09:00:57.385Z,11.40
2023-04-07T09:03:27.856Z,11.70
2023-04-07T09:05:58.316Z,11.00
2023-04-07T09:08:26.200Z,10.03
2023-04-07T09:10:54.880Z,10.57
2023-04-07T09:13:22.944Z,8.27
2023-04-07T09:15:51.092Z,7.00
2023-04-07T09:18:20.059Z,7.23
2023-04-07T09:21:01.242Z,7.03
2023-04-07T09:23:32.442Z,7.63
2023-04-07T09:26:02.301Z,7.37
2023-04-07T09:28:43.035Z,8.50
2023-04-07T09:31:10.986Z,7.73
2023-04-07T09:33:39.228Z,7.97
2023-04-07T09:36:08.917Z,8.13
2023-04-07T09:38:39.088Z,7.87
2023-04-07T09:41:08.747Z,8.00
2023-04-07T09:43:42.616Z,8.40
2023-04-07T09:46:13.480Z,7.77
2023-04-07T09:48:42.520Z,7.60
2023-04-07T09:51:14.352Z,7.83
2023-04-07T09:53:49.159Z,7.83
2023-04-07T09:56:19.457Z,7.37
2023-04-07T09:58:49.177Z,8.43
2023-04-07T10:01:18.474Z,8.10
2023-04-07T10:03:49.165Z,7.90
2023-04-07T10:06:20.780Z,8.33
2023-04-07T10:08:49.146Z,8.33
2023-04-07T10:11:18.036Z,7.80
2023-04-07T10:13:47.509Z,7.87
2023-04-07T10:16:16.573Z,8.20
2023-04-07T10:18:45.112Z,8.57
2023-04-07T10:21:15.451Z,8.07
2023-04-07T10:24:05.260Z,7.60
2023-04-07T10:26:36.910Z,8.20
2023-04-07T10:29:11.867Z,8.40
2023-04-07T10:31:40.926Z,8.33
2023-04-07T10:34:09.108Z,7.23
2023-04-07T10:36:37.087Z,8.17
2023-04-07T10:39:23.458Z,7.77
2023-04-07T10:41:51.956Z,8.13
2023-04-07T10:44:50.476Z,8.93
2023-04-07T10:47:18.570Z,7.37
2023-04-07T10:50:21.516Z,7.87
2023-04-07T10:52:52.425Z,7.63
2023-04-07T10:55:39.514Z,6.97
2023-04-07T10:58:25.535Z,7.20
2023-04-07T11:01:22.070Z,7.00
2023-04-07T11:04:01.470Z,7.17
2023-04-07T11:06:29.706Z,7.57
2023-04-07T11:08:57.590Z,6.80
2023-04-07T11:11:42.929Z,7.37
2023-04-07T11:14:11.602Z,6.50
2023-04-07T11:16:43.321Z,9.97
2023-04-07T11:19:11.837Z,8.00
2023-04-07T11:21:40.102Z,7.07
2023-04-07T11:24:08.002Z,7.50
2023-04-07T11:26:42.558Z,7.03
2023-04-07T11:29:12.004Z,6.77
2023-04-07T11:31:40.244Z,7.00
2023-04-07T11:34:08.928Z,7.13
2023-04-07T11:36:40.781Z,7.57
2023-04-07T11:39:21.579Z,7.33
2023-04-07T11:41:52.052Z,7.03
2023-04-07T11:44:22.572Z,6.83
2023-04-07T11:46:55.474Z,7.90
2023-04-07T11:49:25.867Z,7.60
2023-04-07T11:52:01.909Z,7.90
2023-04-07T11:54:42.375Z,7.30
2023-04-07T11:57:12.805Z,7.87
2023-04-07T11:59:41.962Z,7.87
2023-04-07T12:02:10.260Z,8.00
2023-04-07T12:04:40.758Z,8.67
2023-04-07T12:07:10.720Z,8.40
2023-04-07T12:09:39.191Z,9.10
2023-04-07T12:12:10.485Z,8.70
2023-04-07T12:14:39.937Z,9.57
2023-04-07T12:17:09.357Z,8.27
2023-04-07T12:19:39.407Z,11.50
2023-04-07T12:22:07.386Z,8.37
2023-04-07T12:24:35.361Z,9.60
2023-04-07T12:27:03.508Z,8.70
2023-04-07T12:29:31.538Z,9.17
2023-04-07T12:32:01.074Z,9.23
2023-04-07T12:34:29.048Z,8.77
2023-04-07T12:36:56.940Z,8.97
2023-04-07T12:39:24.836Z,8.33
2023-04-07T12:41:53.244Z,9.43
2023-04-07T12:44:21.298Z,9.80
2023-04-07T12:46:49.388Z,9.73
2023-04-07T12:49:21.185Z,9.27
2023-04-07T12:51:51.672Z,9.77
2023-04-07T12:54:19.696Z,9.43
2023-04-07T12:56:47.863Z,9.00
2023-04-07T12:59:15.977Z,10.00
2023-04-07T13:01:44.265Z,9.77
2023-04-07T13:04:12.314Z,9.30
2023-04-07T13:06:41.539Z,8.87
2023-04-07T13:09:09.430Z,9.03
2023-04-07T13:11:40.210Z,9.00
2023-04-07T13:14:08.070Z,9.30
2023-04-07T13:16:36.083Z,8.47
2023-04-07T13:19:04.060Z,11.47
2023-04-07T13:21:43.685Z,7.43
2023-04-07T13:24:15.646Z,7.57
2023-04-07T13:26:43.599Z,7.67
2023-04-07T13:29:11.504Z,7.47
2023-04-07T13:31:39.364Z,6.70
2023-04-07T13:34:07.634Z,6.57
2023-04-07T13:36:35.471Z,6.50
2023-04-07T13:39:03.437Z,6.97
2023-04-07T13:41:32.737Z,7.53
2023-04-07T13:44:01.756Z,7.37
2023-04-07T13:46:31.190Z,6.57
2023-04-07T13:48:59.212Z,6.23
2023-04-07T13:51:28.000Z,6.53
2023-04-07T13:53:56.069Z,6.17
2023-04-07T13:56:24.023Z,6.67
2023-04-07T13:58:53.935Z,6.13
2023-04-07T14:01:21.886Z,6.57
2023-04-07T14:03:50.423Z,6.93
2023-04-07T14:06:22.401Z,6.20
2023-04-07T14:08:50.295Z,6.77
2023-04-07T14:11:18.896Z,5.90
2023-04-07T14:13:47.757Z,6.50
2023-04-07T14:16:18.530Z,5.30
2023-04-07T14:18:46.825Z,6.00
2023-04-07T14:21:15.169Z,5.60
2023-04-07T14:23:43.223Z,5.40
2023-04-07T14:26:12.231Z,5.77
2023-04-07T14:28:40.796Z,5.20
2023-04-07T14:31:15.119Z,4.83
2023-04-07T14:33:45.501Z,5.10
2023-04-07T14:36:16.635Z,5.57
2023-04-07T14:38:44.734Z,5.23
2023-04-07T14:41:13.081Z,5.43
2023-04-07T14:43:41.237Z,5.00
2023-04-07T14:46:09.233Z,5.60
2023-04-07T14:48:37.227Z,5.30
2023-04-07T14:51:12.726Z,5.17
2023-04-07T14:53:43.256Z,5.37
2023-04-07T14:56:11.200Z,5.20
2023-04-07T14:58:40.541Z,6.57
2023-04-07T15:01:09.229Z,6.03
2023-04-07T15:03:37.544Z,5.53
2023-04-07T15:06:11.076Z,5.07
2023-04-07T15:08:39.200Z,5.60
2023-04-07T15:11:07.941Z,6.20
2023-04-07T15:13:37.705Z,6.10
2023-04-07T15:16:11.140Z,6.33
2023-04-07T15:18:42.008Z,5.60
2023-04-07T15:21:13.414Z,5.23
2023-04-07T15:23:41.785Z,5.60
2023-04-07T15:26:11.321Z,5.50
2023-04-07T15:28:39.751Z,4.93
2023-04-07T15:31:08.866Z,5.80
2023-04-07T15:33:37.712Z,5.27
2023-04-07T15:36:07.063Z,5.27
2023-04-07T15:38:38.722Z,5.27
2023-04-07T15:41:07.093Z,5.70
2023-04-07T15:43:36.753Z,6.37
2023-04-07T15:46:04.739Z,6.73
2023-04-07T15:48:32.658Z,6.73
2023-04-07T15:51:00.608Z,7.13
2023-04-07T15:53:28.936Z,6.97
2023-04-07T15:55:58.476Z,7.10
2023-04-07T15:58:26.801Z,6.67
2023-04-07T16:00:54.881Z,6.80
2023-04-07T16:03:22.935Z,6.67
2023-04-07T16:05:51.456Z,7.20
2023-04-07T16:08:19.428Z,8.10
2023-04-07T16:10:47.360Z,6.37
2023-04-07T16:13:16.887Z,6.20
2023-04-07T16:15:44.822Z,7.00
2023-04-07T16:18:13.205Z,8.17
2023-04-07T16:20:41.331Z,6.63
2023-04-07T16:23:10.489Z,7.17
2023-04-07T16:25:38.416Z,7.00
2023-04-07T16:28:06.385Z,5.57
2023-04-07T16:30:36.124Z,6.57
2023-04-07T16:33:04.208Z,6.90
2023-04-07T16:35:32.586Z,6.33
2023-04-07T16:38:03.929Z,6.80
2023-04-07T16:40:32.024Z,6.10
2023-04-07T16:43:00.078Z,6.23
2023-04-07T16:45:28.119Z,6.60
2023-04-07T16:47:57.383Z,6.47
2023-04-07T16:50:25.446Z,6.50
2023-04-07T16:52:54.729Z,5.67
2023-04-07T16:55:23.087Z,10.20
2023-04-07T16:57:51.318Z,7.37
2023-04-07T17:00:20.141Z,7.00
2023-04-07T17:02:48.136Z,6.97
2023-04-07T17:05:18.162Z,11.20
2023-04-07T17:07:46.356Z,5.97
2023-04-07T17:10:14.943Z,5.93
2023-04-07T17:12:42.895Z,6.10
2023-04-07T17:15:13.882Z,5.60
2023-04-07T17:17:41.767Z,6.30
2023-04-07T17:20:10.934Z,4.73
2023-04-07T17:22:40.214Z,4.40
2023-04-07T17:25:09.611Z,4.10
2023-04-07T17:27:37.529Z,4.40
2023-04-07T17:30:07.394Z,4.57
2023-04-07T17:32:35.368Z,4.30
2023-04-07T17:35:03.296Z,3.60
2023-04-07T17:37:31.743Z,3.60
2023-04-07T17:40:01.164Z,3.90
2023-04-07T17:42:29.021Z,4.23
2023-04-07T17:44:57.714Z,4.50
2023-04-07T17:47:25.628Z,5.43
2023-04-07T17:49:53.542Z,4.00
2023-04-07T17:52:21.622Z,4.37
2023-04-07T17:54:49.850Z,4.67
2023-04-07T17:57:20.164Z,4.87
2023-04-07T17:59:49.285Z,4.00
2023-04-07T18:02:17.995Z,4.50
2023-04-07T18:04:46.693Z,4.20
2023-04-07T18:07:14.947Z,5.03
2023-04-07T18:09:44.701Z,4.20
2023-04-07T18:12:12.670Z,3.60
2023-04-07T18:14:41.971Z,3.30
2023-04-07T18:17:09.896Z,2.77
2023-04-07T18:19:37.853Z,3.20
2023-04-07T18:22:06.348Z,3.37
2023-04-07T18:24:34.211Z,3.30
2023-04-07T18:27:02.495Z,3.90
2023-04-07T18:29:30.770Z,3.13
2023-04-07T18:32:00.481Z,2.90
2023-04-07T18:34:28.440Z,2.70
2023-04-07T18:36:56.477Z,2.93
2023-04-07T18:39:27.852Z,4.10
2023-04-07T18:41:57.461Z,3.70
2023-04-07T18:44:28.264Z,3.80
2023-04-07T18:46:56.679Z,3.50
2023-04-07T18:49:28.335Z,3.30
2023-04-07T18:51:56.503Z,3.13
2023-04-07T18:54:27.005Z,3.70
2023-04-07T18:56:54.952Z,3.47
2023-04-07T18:59:22.896Z,4.07
2023-04-07T19:01:50.910Z,3.07
2023-04-07T19:04:20.840Z,3.10
2023-04-07T19:06:52.578Z,2.43
2023-04-07T19:09:20.623Z,2.97
2023-04-07T19:11:48.885Z,3.30
2023-04-07T19:14:16.760Z,4.73
2023-04-07T19:16:45.794Z,5.63
2023-04-07T19:19:14.173Z,4.07
2023-04-07T19:21:44.672Z,4.97
2023-04-07T19:24:13.905Z,5.70
2023-04-07T19:26:42.877Z,3.70
2023-04-07T19:29:12.435Z,5.20
2023-04-07T19:31:40.594Z,5.77
2023-04-07T19:34:08.520Z,6.53
2023-04-07T19:36:36.433Z,3.97
2023-04-07T19:39:05.313Z,3.67
2023-04-07T19:41:34.572Z,4.60
2023-04-07T19:44:02.434Z,4.07
2023-04-07T19:46:30.354Z,8.60
2023-04-07T19:48:58.306Z,4.60
2023-04-07T19:51:27.627Z,6.13
2023-04-07T19:53:55.583Z,4.07
2023-04-07T19:56:23.492Z,3.90
2023-04-07T19:58:52.875Z,3.43
2023-04-07T20:01:21.106Z,3.50
2023-04-07T20:03:49.141Z,3.67
2023-04-07T20:06:18.868Z,4.00
2023-04-07T20:08:48.407Z,4.13
2023-04-07T20:11:16.620Z,5.60
2023-04-07T20:13:44.544Z,4.43
2023-04-07T20:16:14.043Z,4.57
2023-04-07T20:18:42.140Z,5.40
2023-04-07T20:21:10.745Z,7.77
2023-04-07T20:23:38.787Z,10.23
2023-04-07T20:26:06.959Z,9.97
2023-04-07T20:28:34.845Z,11.00
2023-04-07T20:31:02.814Z,10.40
2023-04-07T20:33:32.038Z,10.30
2023-04-07T20:35:59.972Z,10.17
2023-04-07T20:38:27.975Z,10.67
2023-04-07T20:40:56.002Z,9.70
2023-04-07T20:43:24.259Z,9.00
2023-04-07T20:45:53.209Z,9.43
2023-04-07T20:48:23.761Z,8.37
2023-04-07T20:50:53.470Z,7.83
2023-04-07T20:53:22.070Z,10.13
2023-04-07T20:55:49.993Z,8.77
2023-04-07T20:58:18.587Z,11.37
2023-04-07T21:00:46.937Z,9.80
2023-04-07T21:03:15.312Z,10.90
2023-04-07T21:05:44.694Z,8.97
2023-04-07T21:08:14.762Z,8.03
2023-04-07T21:10:43.251Z,7.80
2023-04-07T21:13:11.200Z,8.07
2023-04-07T21:15:39.180Z,6.07
2023-04-07T21:18:07.157Z,10.30
2023-04-07T21:20:37.066Z,7.57
2023-04-07T21:23:09.843Z,7.20
2023-04-07T21:25:39.331Z,8.90
2023-04-07T21:28:07.315Z,7.73
2023-04-07T21:30:35.481Z,6.90
2023-04-07T21:33:04.265Z,6.63
2023-04-07T21:35:32.172Z,6.90
2023-04-07T21:38:00.373Z,7.07
2023-04-07T21:40:28.346Z,6.67
2023-04-07T21:42:57.753Z,6.17
2023-04-07T21:45:25.811Z,5.67
2023-04-07T21:47:53.765Z,6.30
2023-04-07T21:50:21.684Z,6.43
2023-04-07T21:52:51.668Z,5.83
2023-04-07T21:55:20.474Z,5.63
2023-04-07T21:57:50.188Z,5.47
2023-04-07T22:00:20.371Z,5.60
2023-04-07T22:02:48.677Z,5.33
2023-04-07T22:05:17.376Z,5.10
2023-04-07T22:07:46.730Z,5.43
2023-04-07T22:10:15.574Z,5.77
2023-04-07T22:12:43.816Z,6.77
2023-04-07T22:15:13.602Z,5.93
2023-04-07T22:17:42.896Z,5.87
2023-04-07T22:20:12.491Z,5.63
2023-04-07T22:22:41.171Z,5.83
2023-04-07T22:25:10.060Z,5.80
2023-04-07T22:27:37.923Z,5.20
2023-04-07T22:30:09.839Z,5.60
2023-04-07T22:32:37.878Z,5.27
2023-04-07T22:35:07.876Z,5.73
2023-04-07T22:37:35.737Z,5.63
2023-04-07T22:40:03.954Z,5.43
2023-04-07T22:42:31.801Z,5.53
2023-04-07T22:44:59.701Z,5.73
2023-04-07T22:47:27.829Z,4.93
2023-04-07T22:49:56.360Z,5.80
2023-04-07T22:52:25.674Z,6.03
2023-04-07T22:54:53.606Z,6.23
2023-04-07T22:57:21.607Z,7.87
2023-04-07T22:59:49.497Z,6.27
2023-04-07T23:02:17.488Z,6.73
2023-04-07T23:04:45.758Z,6.40
2023-04-07T23:07:13.937Z,6.97
2023-04-07T23:09:43.121Z,6.90
2023-04-07T23:12:11.016Z,7.07
2023-04-07T23:14:38.947Z,7.23
2023-04-07T23:17:06.808Z,8.00
2023-04-07T23:19:34.714Z,6.80
2023-04-07T23:22:02.652Z,7.27
2023-04-07T23:24:30.580Z,6.07
2023-04-07T23:26:59.887Z,6.50
2023-04-07T23:29:28.097Z,6.00
2023-04-07T23:31:56.602Z,5.30
2023-04-07T23:34:24.508Z,5.73
2023-04-07T23:36:52.905Z,5.57
2023-04-07T23:39:20.986Z,5.50
2023-04-07T23:41:49.140Z,5.40
2023-04-07T23:44:18.790Z,5.27
2023-04-07T23:46:46.659Z,5.37
2023-04-07T23:49:14.525Z,5.53
2023-04-07T23:51:43.695Z,5.33
2023-04-07T23:54:12.339Z,4.77
2023-04-07T23:56:40.332Z,5.17
2023-04-07T23:59:08.222Z,5.57
